Time;durP1;ratioP1;P1;durP2;ratioP2;P2;SDS_P1;SDS_P2;PMS_P1;PMS_P2;Temp;Humidity;BMP_temperature;BMP_pressure;BME280_temperature;BME280_humidity;BME280_pressure;Samples;Min_cycle;Max_cycle;Signal;HPM_P1;HPM_P2
2023/10/27 00:01:47;;;;;;;0.00;0.00;;;;;;;14.65;59.98;97942.25;5307222;26;20060;-93
2023/10/27 00:04:15;;;;;;;0.03;0.03;;;;;;;14.75;59.99;97945.00;5326079;26;20108;-93
2023/10/27 00:06:41;;;;;;;0.00;0.00;;;;;;;14.73;59.99;97933.81;5290065;26;21582;-93
2023/10/27 00:09:06;;;;;;;0.10;0.10;;;;;;;14.71;59.98;97925.25;5311537;26;20167;-93
2023/10/27 00:11:31;;;;;;;0.35;0.32;;;;;;;14.75;59.99;97918.81;5308033;26;26873;-94
2023/10/27 00:13:57;;;;;;;0.98;0.55;;;;;;;14.82;59.99;97921.78;5307670;26;20444;-95
2023/10/27 00:16:22;;;;;;;0.55;0.13;;;;;;;14.83;59.99;97926.91;5307711;26;20076;-95
2023/10/27 00:18:48;;;;;;;0.20;0.20;;;;;;;14.91;59.99;97927.16;5307017;26;24271;-95
2023/10/27 00:21:13;;;;;;;0.00;0.00;;;;;;;14.95;60.00;97928.56;5306898;26;24396;-94
2023/10/27 00:23:41;;;;;;;0.00;0.00;;;;;;;14.99;60.00;97916.91;5307471;26;20061;-95
2023/10/27 00:26:07;;;;;;;0.00;0.00;;;;;;;15.15;60.01;97913.91;5307047;26;24495;-95
2023/10/27 00:28:32;;;;;;;0.32;0.32;;;;;;;15.11;60.01;97909.00;5306842;26;21047;-95
2023/10/27 00:30:58;;;;;;;0.10;0.10;;;;;;;15.09;60.00;97914.38;5307699;26;20061;-94
2023/10/27 00:33:24;;;;;;;0.22;0.20;;;;;;;15.11;60.01;97916.88;5289301;26;20064;-94
2023/10/27 00:35:52;;;;;;;0.00;0.00;;;;;;;15.24;60.01;97909.69;5307407;26;20044;-95
2023/10/27 00:38:18;;;;;;;0.30;0.30;;;;;;;15.34;60.02;97905.37;5290541;26;20099;-94
2023/10/27 00:40:44;;;;;;;0.40;0.40;;;;;;;15.22;60.01;97909.00;5288997;26;20080;-94
2023/10/27 00:43:15;;;;;;;0.00;0.00;;;;;;;15.28;60.02;97903.25;5307555;26;20441;-94
2023/10/27 00:45:41;;;;;;;0.00;0.00;;;;;;;15.29;60.02;97915.41;5290132;26;20789;-95
2023/10/27 00:48:06;;;;;;;0.10;0.10;;;;;;;15.28;60.02;97913.72;5307582;26;20075;-95
2023/10/27 00:50:32;;;;;;;0.50;0.37;;;;;;;15.26;60.01;97908.62;5306824;26;22099;-95
2023/10/27 00:52:57;;;;;;;0.10;0.10;;;;;;;15.25;60.02;97908.75;5307425;26;20409;-95
2023/10/27 00:55:23;;;;;;;0.00;0.00;;;;;;;15.26;60.01;97915.66;5308120;26;20355;-94
2023/10/27 00:57:48;;;;;;;0.00;0.00;;;;;;;15.31;60.03;97903.84;5308254;26;20463;-95
2023/10/27 01:00:14;;;;;;;0.10;0.10;;;;;;;15.38;60.02;97906.81;5308522;26;20111;-93
2023/10/27 01:02:40;;;;;;;0.15;0.15;;;;;;;15.40;60.02;97912.75;5308330;26;20075;-94
2023/10/27 01:05:06;;;;;;;1.58;0.28;;;;;;;15.67;60.03;97914.97;5308401;26;20341;-95
2023/10/27 01:07:31;;;;;;;1.48;0.65;;;;;;;15.50;60.03;97910.22;5308421;26;20052;-94
2023/10/27 01:09:57;;;;;;;0.75;0.75;;;;;;;15.49;60.03;97905.94;5307853;26;20080;-94
2023/10/27 01:12:22;;;;;;;0.00;0.00;;;;;;;15.37;60.02;97907.75;5308416;26;20075;-95
2023/10/27 01:14:47;;;;;;;0.45;0.30;;;;;;;15.51;60.02;97899.59;5308113;26;21444;-95
2023/10/27 01:17:13;;;;;;;0.10;0.10;;;;;;;15.49;60.03;97903.31;5308081;26;20386;-94
2023/10/27 01:19:38;;;;;;;0.57;0.57;;;;;;;15.55;60.04;97889.69;5308462;26;20104;-94
2023/10/27 01:22:04;;;;;;;0.10;0.10;;;;;;;15.54;60.02;97895.91;5308079;26;20142;-95
2023/10/27 01:24:29;;;;;;;0.00;0.00;;;;;;;15.54;60.02;97890.66;5307975;26;20133;-94
2023/10/27 01:26:55;;;;;;;0.32;0.20;;;;;;;15.58;60.03;97884.19;5308303;26;20063;-94
2023/10/27 01:29:24;;;;;;;0.08;0.08;;;;;;;15.52;60.03;97885.53;5290597;26;20075;-95
2023/10/27 01:31:49;;;;;;;0.40;0.40;;;;;;;15.59;60.03;97878.03;5308660;26;20064;-94
2023/10/27 01:34:17;;;;;;;0.00;0.00;;;;;;;15.73;60.04;97874.28;5307498;26;24099;-94
2023/10/27 01:36:49;;;;;;;15.70;1.70;;;;;;;15.76;60.04;97863.53;5326822;26;20044;-93
2023/10/27 01:39:14;;;;;;;0.47;0.22;;;;;;;15.79;60.05;97873.75;5308976;26;20444;-94
2023/10/27 01:41:39;;;;;;;0.00;0.00;;;;;;;15.85;60.04;97862.75;5308080;26;20104;-93
2023/10/27 01:44:05;;;;;;;0.00;0.00;;;;;;;15.88;60.05;97867.75;5308689;26;20088;-94
2023/10/27 01:46:30;;;;;;;0.00;0.00;;;;;;;15.98;60.05;97854.69;5308412;26;20051;-94
2023/10/27 01:48:56;;;;;;;0.52;0.52;;;;;;;15.98;60.05;97852.91;5308523;26;20112;-92
2023/10/27 01:51:21;;;;;;;0.10;0.10;;;;;;;16.08;60.06;97852.94;5308589;26;20068;-93
2023/10/27 01:53:47;;;;;;;1.08;0.20;;;;;;;16.10;60.06;97843.16;5309310;26;22425;-93
2023/10/27 01:56:12;;;;;;;0.05;0.00;;;;;;;16.20;60.06;97844.03;5309849;26;20062;-93
2023/10/27 01:58:43;;;;;;;0.17;0.17;;;;;;;16.13;60.06;97841.12;5307946;26;20120;-94
2023/10/27 02:01:09;;;;;;;0.00;0.00;;;;;;;16.22;60.06;97842.13;5309158;26;20065;-93
2023/10/27 02:03:35;;;;;;;0.00;0.00;;;;;;;16.21;60.07;97843.91;5308006;26;20064;-93
2023/10/27 02:06:00;;;;;;;0.00;0.00;;;;;;;16.21;60.06;97835.19;5307535;26;20095;-93
2023/10/27 02:08:26;;;;;;;0.00;0.00;;;;;;;16.15;60.05;97826.06;5308261;26;20087;-94
2023/10/27 02:10:51;;;;;;;0.00;0.00;;;;;;;16.37;60.07;97819.81;5308358;26;20428;-94
2023/10/27 02:13:16;;;;;;;0.60;0.52;;;;;;;16.38;60.07;97831.97;5307985;26;20412;-94
2023/10/27 02:15:45;;;;;;;0.37;0.28;;;;;;;16.39;60.07;97823.13;5310621;26;20094;-94
2023/10/27 02:18:10;;;;;;;0.00;0.00;;;;;;;16.45;60.07;97819.13;5290408;26;20060;-93
2023/10/27 02:20:36;;;;;;;0.00;0.00;;;;;;;16.38;60.07;97812.75;5308140;26;20123;-94
2023/10/27 02:23:01;;;;;;;0.00;0.00;;;;;;;16.56;60.09;97812.00;5308108;26;20363;-94
2023/10/27 02:25:27;;;;;;;0.60;0.45;;;;;;;16.64;60.09;97805.25;5308283;26;20065;-93
2023/10/27 02:27:52;;;;;;;1.55;1.08;;;;;;;16.86;60.10;97800.63;5308697;26;20065;-93
2023/10/27 02:30:17;;;;;;;5.40;0.68;;;;;;;16.77;60.09;97803.22;5308659;26;20072;-94
2023/10/27 02:32:43;;;;;;;0.00;0.00;;;;;;;17.03;60.11;97793.84;5308585;26;20122;-92
2023/10/27 02:35:08;;;;;;;0.15;0.15;;;;;;;16.95;60.10;97801.59;5310524;26;20040;-94
2023/10/27 02:37:34;;;;;;;0.47;0.20;;;;;;;17.07;60.10;97800.50;5308304;26;20079;-94
2023/10/27 02:39:59;;;;;;;0.00;0.00;;;;;;;16.81;60.09;97799.38;5326625;26;20067;-93
2023/10/27 02:42:25;;;;;;;0.00;0.00;;;;;;;16.83;60.10;97794.81;5307634;26;20662;-94
2023/10/27 02:44:50;;;;;;;1.35;0.90;;;;;;;17.00;60.10;97790.66;5326497;26;20082;-94
2023/10/27 02:47:16;;;;;;;0.00;0.00;;;;;;;17.25;60.12;97784.84;5308283;26;20095;-94
2023/10/27 02:49:41;;;;;;;0.00;0.00;;;;;;;17.17;60.12;97779.47;5326816;26;20085;-95
2023/10/27 02:52:06;;;;;;;0.00;0.00;;;;;;;17.15;60.11;97786.66;5307916;26;20137;-95
2023/10/27 02:54:32;;;;;;;0.00;0.00;;;;;;;17.28;60.12;97784.59;5308279;26;20063;-94
2023/10/27 02:56:57;;;;;;;0.00;0.00;;;;;;;17.19;60.11;97785.41;5320261;26;20068;-93
2023/10/27 02:59:23;;;;;;;0.00;0.00;;;;;;;17.11;60.11;97780.84;5317813;26;20117;-93
2023/10/27 03:01:48;;;;;;;0.00;0.00;;;;;;;17.07;60.11;97776.03;5306617;26;28780;-93
2023/10/27 03:04:14;;;;;;;0.00;0.00;;;;;;;17.13;60.11;97776.28;5308105;26;20079;-94
2023/10/27 03:06:41;;;;;;;0.00;0.00;;;;;;;17.27;60.12;97772.44;5308417;26;20060;-93
2023/10/27 03:09:07;;;;;;;0.00;0.00;;;;;;;17.11;60.11;97767.72;5309466;26;20075;-92
2023/10/27 03:11:32;;;;;;;0.00;0.00;;;;;;;17.33;60.13;97761.34;5308462;26;20080;-92
2023/10/27 03:13:57;;;;;;;0.52;0.52;;;;;;;17.53;60.13;97762.16;5308898;26;20068;-93
2023/10/27 03:16:23;;;;;;;0.00;0.00;;;;;;;17.37;60.12;97751.38;5307618;26;20458;-93
2023/10/27 03:18:48;;;;;;;0.00;0.00;;;;;;;17.39;60.12;97741.53;5307559;26;20072;-93
2023/10/27 03:21:14;;;;;;;0.13;0.13;;;;;;;17.40;60.13;97737.94;5307846;26;20079;-94
2023/10/27 03:23:39;;;;;;;0.00;0.00;;;;;;;17.39;60.12;97733.66;5307851;26;20056;-93
2023/10/27 03:26:05;;;;;;;0.10;0.10;;;;;;;17.37;60.13;97725.06;5307868;26;20107;-93
2023/10/27 03:28:31;;;;;;;0.00;0.00;;;;;;;17.35;60.13;97727.03;5307944;26;20122;-94
2023/10/27 03:30:57;;;;;;;0.00;0.00;;;;;;;17.47;60.14;97718.81;5308152;26;20118;-93
2023/10/27 03:33:22;;;;;;;0.20;0.20;;;;;;;17.46;60.12;97709.25;5308171;26;20125;-93
2023/10/27 03:35:48;;;;;;;0.00;0.00;;;;;;;17.46;60.12;97708.44;5311282;26;20064;-93
2023/10/27 03:38:13;;;;;;;0.00;0.00;;;;;;;17.46;60.12;97714.53;5314733;26;20088;-93
2023/10/27 03:40:39;;;;;;;0.00;0.00;;;;;;;17.38;60.12;97709.16;5324710;26;20068;-93
2023/10/27 03:43:04;;;;;;;0.00;0.00;;;;;;;17.57;60.14;97703.03;5325029;26;20020;-93
2023/10/27 03:45:29;;;;;;;0.00;0.00;;;;;;;17.44;60.12;97695.44;5326028;26;20024;-92
2023/10/27 03:47:55;;;;;;;0.00;0.00;;;;;;;17.46;60.12;97697.91;5320248;26;28969;-93
2023/10/27 03:50:20;;;;;;;0.60;0.17;;;;;;;17.44;60.12;97686.72;5309014;26;20078;-92
2023/10/27 03:52:46;;;;;;;0.00;0.00;;;;;;;17.42;60.13;97691.28;5308017;26;20069;-92
2023/10/27 03:55:11;;;;;;;0.00;0.00;;;;;;;17.59;60.13;97690.56;5308132;26;20072;-93
2023/10/27 03:57:39;;;;;;;0.00;0.00;;;;;;;17.65;60.14;97676.00;5307706;26;20092;-93
2023/10/27 04:00:05;;;;;;;0.03;0.03;;;;;;;17.64;60.14;97669.06;5289653;26;20070;-94
2023/10/27 04:02:31;;;;;;;0.00;0.00;;;;;;;17.59;60.13;97661.63;5289516;26;20094;-92
2023/10/27 04:04:56;;;;;;;0.00;0.00;;;;;;;17.50;60.13;97654.56;5307765;26;20075;-92
2023/10/27 04:07:22;;;;;;;0.10;0.10;;;;;;;17.56;60.14;97646.13;5307190;26;23853;-91
2023/10/27 04:09:47;;;;;;;0.00;0.00;;;;;;;17.47;60.14;97639.91;5311084;26;20060;-93
2023/10/27 04:12:13;;;;;;;2.08;0.70;;;;;;;17.54;60.13;97639.34;5326070;26;20086;-92
2023/10/27 04:14:39;;;;;;;0.00;0.00;;;;;;;17.58;60.14;97632.81;5308008;26;20089;-92
2023/10/27 04:17:04;;;;;;;0.15;0.15;;;;;;;17.35;60.13;97632.34;5307708;26;20060;-92
2023/10/27 04:19:30;;;;;;;3.22;0.47;;;;;;;17.58;60.13;97620.50;5307690;26;20071;-92
2023/10/27 04:21:55;;;;;;;0.00;0.00;;;;;;;17.60;60.13;97617.72;5306871;26;22580;-92
2023/10/27 04:24:20;;;;;;;0.00;0.00;;;;;;;17.50;60.13;97618.56;5307682;26;20116;-91
2023/10/27 04:26:46;;;;;;;0.00;0.00;;;;;;;17.47;60.14;97615.41;5307066;26;20157;-93
2023/10/27 04:29:11;;;;;;;0.00;0.00;;;;;;;17.61;60.13;97612.31;5308115;26;20101;-94
2023/10/27 04:31:37;;;;;;;0.00;0.00;;;;;;;17.44;60.12;97599.91;5311346;26;28406;-93
2023/10/27 04:34:03;;;;;;;0.00;0.00;;;;;;;17.45;60.13;97594.50;5327150;26;20456;-93
2023/10/27 04:36:29;;;;;;;0.00;0.00;;;;;;;17.65;60.14;97581.28;5308655;26;20077;-92
2023/10/27 04:38:55;;;;;;;0.00;0.00;;;;;;;17.42;60.13;97576.38;5308629;26;20101;-92
2023/10/27 04:41:20;;;;;;;0.03;0.03;;;;;;;17.50;60.13;97570.41;5308718;26;20401;-92
2023/10/27 04:43:46;;;;;;;0.00;0.00;;;;;;;17.50;60.13;97573.84;5308255;26;20315;-93
2023/10/27 04:46:11;;;;;;;0.00;0.00;;;;;;;17.71;60.14;97551.78;5308854;26;20103;-92
2023/10/27 04:48:37;;;;;;;1.98;0.55;;;;;;;17.58;60.13;97546.84;5309430;26;20053;-92
2023/10/27 04:51:04;;;;;;;0.13;0.13;;;;;;;17.61;60.13;97543.09;5329666;26;20128;-91
2023/10/27 04:53:30;;;;;;;0.00;0.00;;;;;;;17.48;60.13;97540.78;5308560;26;20069;-93
2023/10/27 04:55:55;;;;;;;0.13;0.10;;;;;;;17.63;60.14;97526.19;5290024;26;20056;-93
2023/10/27 04:58:21;;;;;;;0.00;0.00;;;;;;;17.52;60.13;97528.19;5327129;26;20071;-93
2023/10/27 05:00:47;;;;;;;0.00;0.00;;;;;;;17.54;60.13;97524.44;5308369;26;20091;-92
2023/10/27 05:03:12;;;;;;;0.00;0.00;;;;;;;17.55;60.14;97526.09;5308342;26;20075;-92
2023/10/27 05:05:38;;;;;;;0.05;0.05;;;;;;;17.60;60.13;97525.66;5326266;26;20052;-92
2023/10/27 05:08:03;;;;;;;0.00;0.00;;;;;;;17.50;60.13;97520.41;5307758;26;20064;-92
2023/10/27 05:10:29;;;;;;;0.10;0.10;;;;;;;17.55;60.13;97517.38;5308731;26;20067;-92
2023/10/27 05:12:55;;;;;;;0.00;0.00;;;;;;;17.30;60.12;97505.75;5309936;26;20068;-93
2023/10/27 05:15:20;;;;;;;0.00;0.00;;;;;;;17.35;60.12;97508.75;5310578;26;20098;-91
2023/10/27 05:17:46;;;;;;;0.00;0.00;;;;;;;17.43;60.12;97509.66;5310971;26;20106;-90
2023/10/27 05:20:12;;;;;;;0.00;0.00;;;;;;;17.52;60.13;97497.47;5320859;26;20024;-91
2023/10/27 05:22:37;;;;;;;0.00;0.00;;;;;;;17.50;60.13;97505.47;5324053;26;20093;-92
2023/10/27 05:25:06;;;;;;;0.00;0.00;;;;;;;17.47;60.13;97502.31;5325983;26;20020;-90
2023/10/27 05:27:33;;;;;;;0.00;0.00;;;;;;;17.32;60.12;97503.78;5308292;26;20084;-91
2023/10/27 05:29:59;;;;;;;0.00;0.00;;;;;;;17.35;60.12;97496.44;5289522;26;20058;-89
2023/10/27 05:32:24;;;;;;;0.00;0.00;;;;;;;17.47;60.13;97489.97;5289924;26;20061;-92
2023/10/27 05:34:50;;;;;;;0.00;0.00;;;;;;;17.26;60.12;97478.87;5306821;26;20414;-92
2023/10/27 05:37:15;;;;;;;0.00;0.00;;;;;;;17.43;60.12;97491.25;5308308;26;20095;-94
2023/10/27 05:39:40;;;;;;;0.00;0.00;;;;;;;17.44;60.12;97481.56;5308127;26;20052;-92
2023/10/27 05:42:06;;;;;;;0.00;0.00;;;;;;;17.38;60.12;97471.63;5307671;26;20088;-91
2023/10/27 05:44:31;;;;;;;0.00;0.00;;;;;;;17.57;60.13;97478.59;5307893;26;20052;-92
2023/10/27 05:46:58;;;;;;;0.00;0.00;;;;;;;17.38;60.12;97467.22;5311454;26;20074;-91
2023/10/27 05:49:23;;;;;;;0.00;0.00;;;;;;;17.42;60.13;97470.37;5308607;26;20044;-88
2023/10/27 05:51:49;;;;;;;0.00;0.00;;;;;;;17.42;60.13;97465.94;5308563;26;20105;-91
2023/10/27 05:54:15;;;;;;;0.00;0.00;;;;;;;17.44;60.13;97471.03;5307254;26;20196;-92
2023/10/27 05:56:40;;;;;;;0.20;0.20;;;;;;;17.37;60.12;97465.56;5306030;26;20064;-92
2023/10/27 05:59:07;;;;;;;0.00;0.00;;;;;;;17.33;60.12;97460.75;5306534;26;20096;-92
2023/10/27 06:01:35;;;;;;;7.22;1.65;;;;;;;17.42;60.13;97457.22;5307148;26;20060;-92
2023/10/27 06:04:01;;;;;;;0.00;0.00;;;;;;;17.49;60.13;97447.75;5307097;26;20056;-92
2023/10/27 06:06:27;;;;;;;0.00;0.00;;;;;;;17.38;60.12;97448.81;5307243;26;20100;-91
2023/10/27 06:08:53;;;;;;;0.00;0.00;;;;;;;17.27;60.12;97443.75;5306653;26;20060;-93
2023/10/27 06:11:18;;;;;;;0.00;0.00;;;;;;;17.39;60.12;97434.66;5288775;26;20126;-92
2023/10/27 06:13:44;;;;;;;0.00;0.00;;;;;;;17.35;60.12;97432.50;5306233;26;20108;-92
2023/10/27 06:16:09;;;;;;;1.65;0.98;;;;;;;17.29;60.11;97420.78;5306504;26;20102;-92
2023/10/27 06:18:35;;;;;;;0.65;0.17;;;;;;;17.33;60.12;97414.22;5306576;26;20143;-92
2023/10/27 06:21:00;;;;;;;0.00;0.00;;;;;;;17.06;60.10;97407.19;5306996;26;20056;-93
2023/10/27 06:23:26;;;;;;;0.00;0.00;;;;;;;17.05;60.11;97409.97;5306783;26;20209;-92
2023/10/27 06:25:51;;;;;;;0.00;0.00;;;;;;;17.17;60.12;97409.63;5306850;26;20440;-91
2023/10/27 06:28:17;;;;;;;0.17;0.10;;;;;;;17.23;60.12;97399.47;5309032;26;20060;-93
2023/10/27 06:30:42;;;;;;;0.10;0.10;;;;;;;17.15;60.12;97401.06;5306821;26;25524;-92
2023/10/27 06:33:08;;;;;;;0.43;0.43;;;;;;;17.28;60.12;97407.78;5306310;26;20052;-93
2023/10/27 06:35:33;;;;;;;0.10;0.10;;;;;;;17.41;60.12;97401.16;5307049;26;20108;-92
2023/10/27 06:37:59;;;;;;;0.15;0.15;;;;;;;17.33;60.12;97400.25;5306031;26;20074;-93
2023/10/27 06:40:24;;;;;;;0.00;0.00;;;;;;;17.22;60.11;97396.03;5306712;26;20108;-92
2023/10/27 06:42:49;;;;;;;2.05;0.57;;;;;;;17.32;60.12;97391.56;5306467;26;20064;-92
2023/10/27 06:45:15;;;;;;;1.65;0.55;;;;;;;17.31;60.11;97397.78;5306765;26;20094;-93
2023/10/27 06:47:40;;;;;;;0.28;0.25;;;;;;;17.24;60.12;97391.44;5306495;26;20073;-92
2023/10/27 06:50:06;;;;;;;0.10;0.10;;;;;;;17.12;60.11;97396.09;5306965;26;20102;-94
2023/10/27 06:52:32;;;;;;;0.75;0.75;;;;;;;17.31;60.11;97395.16;5288297;26;20060;-93
2023/10/27 06:54:58;;;;;;;1.80;1.70;;;;;;;17.33;60.12;97382.69;5288831;26;20113;-92
2023/10/27 06:57:23;;;;;;;2.35;2.10;;;;;;;17.38;60.12;97374.34;5326266;26;20382;-92
2023/10/27 06:59:48;;;;;;;7.35;4.37;;;;;;;17.48;60.13;97367.19;5308340;26;20060;-92
2023/10/27 07:02:14;;;;;;;4.03;3.72;;;;;;;17.36;60.12;97368.41;5310393;26;20067;-92
2023/10/27 07:04:40;;;;;;;1.12;1.10;;;;;;;17.31;60.11;97360.16;5306550;26;20057;-90
2023/10/27 07:07:05;;;;;;;2.03;1.83;;;;;;;17.54;60.13;97365.78;5306833;26;20056;-91
2023/10/27 07:09:41;;;;;;;1.98;1.62;;;;;;;17.45;60.13;97362.22;5307157;26;20105;-90
2023/10/27 07:12:06;;;;;;;2.58;1.60;;;;;;;17.46;60.13;97358.63;5308006;26;20444;-91
2023/10/27 07:14:32;;;;;;;2.62;0.80;;;;;;;17.42;60.13;97352.03;5306631;26;20068;-89
2023/10/27 07:16:59;;;;;;;14.27;1.10;;;;;;;17.49;60.13;97348.63;5306178;26;25077;-90
2023/10/27 07:19:25;;;;;;;0.10;0.10;;;;;;;17.56;60.14;97355.94;5307090;26;20064;-89
2023/10/27 07:21:50;;;;;;;3.92;0.43;;;;;;;17.44;60.12;97348.25;5306617;26;20060;-90
2023/10/27 07:24:16;;;;;;;0.90;0.82;;;;;;;17.41;60.13;97359.09;5309693;26;20388;-91
2023/10/27 07:26:41;;;;;;;1.30;1.05;;;;;;;17.40;60.13;97349.53;5325048;26;20447;-92
2023/10/27 07:29:07;;;;;;;3.50;0.68;;;;;;;17.42;60.12;97331.81;5306676;26;20078;-90
2023/10/27 07:31:33;;;;;;;2.92;1.23;;;;;;;17.37;60.11;97326.19;5306858;26;20076;-91
2023/10/27 07:33:58;;;;;;;0.37;0.37;;;;;;;17.43;60.12;97320.31;5325248;26;20064;-91
2023/10/27 07:36:23;;;;;;;0.00;0.00;;;;;;;17.46;60.12;97321.81;5306814;26;20389;-92
2023/10/27 07:38:49;;;;;;;1.75;0.85;;;;;;;17.43;60.12;97320.31;5306636;26;20111;-90
2023/10/27 07:41:15;;;;;;;0.43;0.40;;;;;;;17.57;60.13;97318.97;5307363;26;20357;-91
2023/10/27 07:43:40;;;;;;;0.73;0.13;;;;;;;17.54;60.13;97326.34;5309273;26;20394;-90
2023/10/27 07:46:07;;;;;;;5.05;0.62;;;;;;;17.62;60.13;97326.37;5306508;26;20080;-91
2023/10/27 07:48:32;;;;;;;1.42;1.33;;;;;;;17.58;60.13;97314.53;5306275;26;20064;-91
2023/10/27 07:50:58;;;;;;;0.00;0.00;;;;;;;17.55;60.13;97314.84;5306257;26;20087;-90
2023/10/27 07:53:24;;;;;;;0.17;0.10;;;;;;;17.55;60.14;97307.78;5306168;26;20071;-91
2023/10/27 07:55:50;;;;;;;0.70;0.70;;;;;;;17.52;60.13;97307.25;5288387;26;20076;-91
2023/10/27 07:58:15;;;;;;;3.90;2.00;;;;;;;17.54;60.13;97300.84;5306176;26;20409;-91
2023/10/27 08:00:41;;;;;;;0.10;0.10;;;;;;;17.65;60.14;97305.03;5324763;26;20111;-91
2023/10/27 08:03:06;;;;;;;1.27;0.90;;;;;;;17.57;60.13;97292.66;5306752;26;20170;-91
2023/10/27 08:05:32;;;;;;;0.60;0.60;;;;;;;17.59;60.13;97297.75;5307734;26;20049;-91
2023/10/27 08:07:57;;;;;;;0.70;0.45;;;;;;;17.72;60.14;97285.06;5307388;26;20150;-92
2023/10/27 08:10:24;;;;;;;0.75;0.55;;;;;;;17.72;60.14;97283.25;5307414;26;20074;-92
2023/10/27 08:12:50;;;;;;;0.80;0.25;;;;;;;17.54;60.13;97273.72;5307158;26;20070;-93
2023/10/27 08:15:16;;;;;;;0.10;0.10;;;;;;;17.65;60.14;97270.84;5306997;26;20081;-92
2023/10/27 08:17:41;;;;;;;0.95;0.95;;;;;;;17.57;60.13;97268.97;5307428;26;20064;-93
2023/10/27 08:20:07;;;;;;;1.30;0.62;;;;;;;17.86;60.15;97263.44;5306625;26;20440;-92
2023/10/27 08:22:33;;;;;;;0.15;0.15;;;;;;;17.82;60.14;97256.03;5307304;26;20052;-91
2023/10/27 08:24:58;;;;;;;5.20;1.60;;;;;;;17.92;60.15;97246.19;5307706;26;20048;-91
2023/10/27 08:27:24;;;;;;;0.85;0.85;;;;;;;17.89;60.15;97257.87;5300187;27;20500;-91
2023/10/27 08:29:53;;;;;;;0.25;0.20;;;;;;;17.98;60.15;97253.47;5282393;27;20083;-91
2023/10/27 08:32:19;;;;;;;0.00;0.00;;;;;;;17.93;60.16;97253.94;5282735;27;20026;-90
2023/10/27 08:34:44;;;;;;;1.55;0.50;;;;;;;17.79;60.15;97249.28;5300946;27;27287;-91
2023/10/27 08:37:10;;;;;;;0.37;0.37;;;;;;;17.79;60.15;97249.28;5284162;27;20061;-91
2023/10/27 08:39:35;;;;;;;0.00;0.00;;;;;;;17.77;60.14;97236.28;5285767;27;20061;-90
2023/10/27 08:42:00;;;;;;;0.00;0.00;;;;;;;17.76;60.14;97221.47;5281831;27;20057;-91
2023/10/27 08:44:26;;;;;;;0.00;0.00;;;;;;;17.68;60.14;97213.50;5299593;27;20084;-91
2023/10/27 08:46:53;;;;;;;0.00;0.00;;;;;;;17.88;60.15;97202.75;5281980;27;20141;-91
2023/10/27 08:49:18;;;;;;;0.00;0.00;;;;;;;17.92;60.15;97193.56;5281858;27;20065;-91
2023/10/27 08:51:44;;;;;;;0.75;0.62;;;;;;;17.76;60.14;97186.44;5299683;27;20056;-91
2023/10/27 08:54:10;;;;;;;0.00;0.00;;;;;;;17.79;60.15;97188.75;5299084;27;25727;-92
2023/10/27 08:56:35;;;;;;;0.00;0.00;;;;;;;17.76;60.14;97183.81;5299985;27;20092;-92
2023/10/27 08:59:03;;;;;;;0.32;0.32;;;;;;;17.83;60.15;97181.37;5302505;27;20065;-92
2023/10/27 09:01:28;;;;;;;0.00;0.00;;;;;;;17.89;60.15;97178.09;5300020;27;20733;-91
2023/10/27 09:04:11;;;;;;;0.10;0.10;;;;;;;17.97;60.15;97170.22;5300533;27;20045;-91
2023/10/27 09:06:37;;;;;;;0.00;0.00;;;;;;;18.04;60.16;97160.72;5301358;27;20710;-92
2023/10/27 09:09:06;;;;;;;0.10;0.10;;;;;;;17.97;60.15;97152.63;5299761;27;20072;-91
2023/10/27 09:11:48;;;;;;;0.10;0.10;;;;;;;18.06;60.16;97148.22;5300491;27;20425;-91
2023/10/27 09:14:24;;;;;;;0.10;0.10;;;;;;;17.99;60.15;97150.69;5299898;27;20072;-92
2023/10/27 09:16:50;;;;;;;0.03;0.03;;;;;;;17.90;60.15;97145.53;5300266;27;20442;-92
2023/10/27 09:19:19;;;;;;;1.85;1.12;;;;;;;17.95;60.15;97148.50;5300426;27;20090;-92
2023/10/27 09:21:45;;;;;;;0.13;0.10;;;;;;;17.96;60.15;97144.88;5300201;27;20053;-93
2023/10/27 09:24:10;;;;;;;0.47;0.47;;;;;;;18.00;60.15;97133.09;5299585;27;20056;-91
2023/10/27 09:26:46;;;;;;;0.10;0.10;;;;;;;17.96;60.15;97129.09;5304229;26;20106;-93
2023/10/27 09:29:11;;;;;;;0.00;0.00;;;;;;;18.07;60.16;97126.19;5285306;27;20428;-92
2023/10/27 09:31:38;;;;;;;0.00;0.00;;;;;;;18.18;60.17;97115.34;5285226;27;20133;-93
2023/10/27 09:34:20;;;;;;;1.48;0.52;;;;;;;18.20;60.17;97104.66;5285015;27;20056;-93
2023/10/27 09:36:46;;;;;;;0.00;0.00;;;;;;;18.29;60.17;97109.78;5303245;27;20087;-92
2023/10/27 09:39:16;;;;;;;0.13;0.13;;;;;;;18.19;60.17;97095.94;5285452;27;20081;-94
2023/10/27 09:41:46;;;;;;;;;;;;;;;18.34;60.17;97104.03;5306906;27;20025;-93
2023/10/27 09:44:13;;;;;;;0.00;0.00;;;;;;;18.36;60.17;97112.59;5322191;26;20400;-93
2023/10/27 09:46:39;;;;;;;0.10;0.10;;;;;;;18.22;60.16;97087.75;5285102;27;20069;-93
2023/10/27 09:49:05;;;;;;;0.03;0.03;;;;;;;18.44;60.18;97073.09;5284859;27;20120;-92
2023/10/27 09:51:31;;;;;;;0.37;0.35;;;;;;;18.49;60.18;97070.81;5285219;27;20109;-91
2023/10/27 09:53:56;;;;;;;0.13;0.13;;;;;;;18.62;60.18;97075.56;5285042;27;20104;-94
2023/10/27 09:56:22;;;;;;;1.30;0.77;;;;;;;18.54;60.18;97063.25;5284418;27;20092;-93
2023/10/27 09:58:48;;;;;;;0.00;0.00;;;;;;;18.55;60.19;97056.97;5285056;27;20109;-92
2023/10/27 10:01:14;;;;;;;0.60;0.20;;;;;;;18.55;60.19;97051.72;5303328;27;20122;-93
2023/10/27 10:03:40;;;;;;;0.00;0.00;;;;;;;18.71;60.20;97053.56;5285366;27;20028;-93
2023/10/27 10:06:12;;;;;;;7.12;0.70;;;;;;;18.68;60.19;97051.22;5285570;27;20079;-94
2023/10/27 10:08:43;;;;;;;0.10;0.10;;;;;;;18.74;60.19;97042.69;5304092;27;20072;-94
2023/10/27 10:11:16;;;;;;;0.45;0.45;;;;;;;18.85;60.19;97038.88;5286510;27;20064;-93
2023/10/27 10:13:42;;;;;;;0.00;0.00;;;;;;;18.83;60.20;97043.50;5285652;27;20080;-93
2023/10/27 10:16:08;;;;;;;0.03;0.03;;;;;;;18.90;60.20;97028.66;5304038;27;20456;-93
2023/10/27 10:18:33;;;;;;;0.00;0.00;;;;;;;18.85;60.19;97034.41;5285477;27;20068;-93
2023/10/27 10:20:59;;;;;;;0.27;0.07;;;;;;;18.85;60.19;97025.69;5321787;27;20117;-93
2023/10/27 10:23:37;;;;;;;0.62;0.62;;;;;;;18.91;60.20;97033.75;5303234;26;20140;-92
2023/10/27 10:26:03;;;;;;;0.00;0.00;;;;;;;18.92;60.21;97038.03;5304829;27;20103;-94
2023/10/27 10:28:36;;;;;;;0.00;0.00;;;;;;;18.76;60.19;97034.63;5303149;27;20069;-93
2023/10/27 10:31:25;;;;;;;0.30;0.30;;;;;;;18.90;60.20;97024.19;5305299;26;20072;-93
2023/10/27 10:33:51;;;;;;;0.45;0.35;;;;;;;18.84;60.20;97018.78;5294651;27;20060;-93
2023/10/27 10:36:23;;;;;;;0.52;0.52;;;;;;;18.72;60.19;97025.41;5288299;27;20457;-92
2023/10/27 10:38:58;;;;;;;0.03;0.03;;;;;;;18.95;60.21;97023.72;5321280;27;20771;-93
2023/10/27 10:41:43;;;;;;;0.08;0.08;;;;;;;18.89;60.20;97019.09;5321818;27;20123;-93
2023/10/27 10:44:13;;;;;;;1.35;1.02;;;;;;;18.89;60.20;97009.38;5321207;27;20056;-92
2023/10/27 10:46:38;;;;;;;0.00;0.00;;;;;;;18.84;60.19;96995.88;5303296;27;20086;-92
2023/10/27 10:49:04;;;;;;;0.00;0.00;;;;;;;18.85;60.19;97000.16;5284949;27;20065;-92
2023/10/27 10:51:30;;;;;;;0.00;0.00;;;;;;;18.91;60.20;96996.84;5285181;27;20060;-90
2023/10/27 10:53:56;;;;;;;0.30;0.15;;;;;;;19.06;60.21;96996.97;5285056;27;20095;-92
2023/10/27 10:56:24;;;;;;;0.00;0.00;;;;;;;19.06;60.21;96973.25;5287533;26;20029;-90
2023/10/27 10:58:50;;;;;;;0.13;0.13;;;;;;;19.11;60.21;96970.09;5284463;27;20143;-90
2023/10/27 11:01:16;;;;;;;0.00;0.00;;;;;;;19.15;60.21;96972.22;5284087;27;20494;-91
2023/10/27 11:03:49;;;;;;;0.20;0.17;;;;;;;19.07;60.21;96963.53;5284658;27;20070;-90
2023/10/27 11:06:14;;;;;;;0.08;0.08;;;;;;;18.97;60.21;96955.84;5321243;26;20064;-92
2023/10/27 11:08:40;;;;;;;0.00;0.00;;;;;;;18.90;60.20;96970.66;5283860;27;26080;-92
2023/10/27 11:11:13;;;;;;;0.10;0.10;;;;;;;18.97;60.20;96984.81;5284412;27;20081;-91
2023/10/27 11:13:43;;;;;;;0.08;0.08;;;;;;;19.06;60.21;96985.63;5303576;26;20052;-91
2023/10/27 11:16:12;;;;;;;0.00;0.00;;;;;;;18.91;60.20;97001.28;5321324;27;20118;-90
2023/10/27 11:18:38;;;;;;;0.65;0.65;;;;;;;18.89;60.20;97037.53;5301779;26;132022;-90
2023/10/27 11:21:03;;;;;;;0.08;0.08;;;;;;;18.72;60.19;97046.47;5304948;27;27614;-91
2023/10/27 11:23:30;;;;;;;0.00;0.00;;;;;;;18.76;60.19;97039.88;5287903;27;20053;-90
2023/10/27 11:26:05;;;;;;;0.20;0.20;;;;;;;18.74;60.19;97062.94;5292030;27;20065;-91
2023/10/27 11:28:30;;;;;;;0.00;0.00;;;;;;;18.54;60.18;97081.69;5298899;27;20047;-91
2023/10/27 11:30:59;;;;;;;0.00;0.00;;;;;;;18.46;60.18;97086.12;5299130;27;20081;-91